Skip to Main Content
SEARCH:
Location Air RH Dwp Precip Type Wind Speed Wind Gust Direction Pavement Temperature Date/Time
Hatem Bridge US 40 E/B 73 96 72 None - - No Data Available 70 - 70 7/28/2017 2:34:00 AM
I-270 at I-370 - - - No Data Available - - No Data Available -
I-270 at MD-109 71 100 71 None Calm Calm N 76 - 77 7/28/2017 2:30:00 AM
I-495 at American Legion Bridge 72 100 72 None Calm Calm NW 76 - 77 7/28/2017 2:30:00 AM
I-68 at MD-219 64 100 64 None Calm 6 mph W 68 - 71 7/28/2017 2:30:00 AM
I-68 at Savage Mt 63 100 63 None Calm 7 mph W 67 - 68 7/28/2017 2:30:00 AM
I-68 at Sideling Hill 71 93 69 None Calm 8 mph NE 76 - 77 7/28/2017 2:30:00 AM
I-68 at WV Line 65 100 65 None Calm Calm E 70 - 72 7/28/2017 2:30:00 AM
I-695 at I-83 74 94 72 None Calm 5 mph E 78 - 79 7/28/2017 2:30:00 AM
I-70 at Fred-Wash Co. - - - No Data Available - - No Data Available -
I-70 at I-695 74 96 73 None Calm Calm SW 77 - 79 7/28/2017 2:30:00 AM
I-70 at I-81 71 98 70 None Calm Calm N - 7/28/2017 2:30:00 AM
I-70 at MD-27 73 100 73 None Calm Calm NE 77 - 77 7/28/2017 2:30:00 AM
I-70 at MD-32 71 97 70 None Calm Calm N 77 - 79 7/28/2017 2:30:00 AM
I-83 at MD-137 73 100 73 None Calm Calm N 77 - 77 7/28/2017 2:30:00 AM
I-95 at I-695 NE 74 94 72 None Calm Calm NW 77 - 79 7/28/2017 2:34:00 AM
I-95 at Patuxent River 73 94 71 None Calm 5 mph NE 78 - 78 7/28/2017 2:30:00 AM
I-95 at Tydings Bridge 73 92 71 None Calm 8 mph NE 76 - 76 7/28/2017 2:30:00 AM
I-95/495 at I-295 84 74 75 None Calm Calm N 79 - 81 7/28/2017 2:30:00 AM
I-97 at MD-100 74 88 70 None Calm Calm NW 79 - 80 7/28/2017 2:30:00 AM
I-97 at MD-32 73 92 70 None 9 mph 10 mph N 79 - 79 7/28/2017 2:30:00 AM
MD 20 at MD 21 72 96 71 None Calm Calm NE 80 - 80 7/28/2017 2:30:00 AM
MD 231 at Patuxent River 73 96 72 None Calm Calm SW 76 - 79 7/28/2017 2:30:00 AM
MD 260 at Cox Rd 73 98 72 None Calm Calm N 82 - 82 7/28/2017 2:30:00 AM
MD-135 at Salt Dome 64 100 64 None Calm Calm NE 71 - 71 7/28/2017 2:30:00 AM
MD-140 at MD-97 70 94 68 None Calm 5 mph E 78 - 78 7/28/2017 2:30:00 AM
MD-200 EB at Bonifant Rd 71 97 70 None Calm Calm N 77 - 77 7/28/2017 2:34:00 AM
MD-200 WB at Muncaster Mill Rd 70 97 69 None Calm Calm N 77 - 77 7/28/2017 2:34:00 AM
MD-213 at Sassafras River 73 100 73 None Calm 5 mph N 78 - 78 7/28/2017 2:30:00 AM
MD-24 at Rock St Park 72 100 72 None Calm Calm N 75 - 75 7/28/2017 2:30:00 AM
MD-30 at PA Line 71 100 71 None Calm 6 mph E 80 - 80 7/28/2017 2:30:00 AM
MD-301 at MD-305 72 95 71 None Calm Calm E 80 - 82 7/28/2017 2:30:00 AM
MD-33 at Knapps Narrows Drawbridge 77 89 74 None Calm 7 mph W 83 - 83 7/28/2017 2:30:00 AM
MD-344 at MD-224 72 97 72 None Calm Calm N - 7/28/2017 2:30:00 AM
MD-4 at Patuxent River 76 85 71 None - - No Data Available 78 - 83 7/28/2017 2:30:00 AM
MD-404 at Choptank River 72 93 71 None Calm Calm NE 76 - 79 7/28/2017 2:30:00 AM
MD-43 at MD-150 75 100 75 None Calm 6 mph NE 78 - 80 7/28/2017 2:30:00 AM
MD-51 at Oldtown Salt Dome 67 100 67 None Calm Calm N 78 - 78 7/28/2017 2:30:00 AM
MD-64 at MD-418 71 98 70 None Calm 5 mph S 81 - 82 7/28/2017 2:30:00 AM
US-1 at Baltimore / Harford Co. Line 71 98 71 None Calm Calm N 76 - 78 7/28/2017 2:30:00 AM
US-1 at Conowingo Dam - - - No Data Available - - No Data Available -
US-13 at US-113 71 97 70 None Calm 7 mph S 77 - 80 7/28/2017 2:30:00 AM
US-13 at US-50 - - - No Data Available - - No Data Available -
US-15 at MD-140 71 94 69 None Calm 4 mph NW 78 - 79 7/28/2017 2:30:00 AM
US-301 at MD-5 73 100 73 None Calm Calm N 78 - 80 7/28/2017 2:30:00 AM
US-301 at Potomac 76 87 72 None 6 mph 9 mph W 76 - 80 7/28/2017 2:30:00 AM
US-301 on HWN Bridge 74 87 70 None 5 mph 8 mph W 74 - 74 7/28/2017 2:34:00 AM
US-340 at MD-180 68 97 68 None Calm Calm NE 76 - 76 7/28/2017 2:30:00 AM
US-50 at Choptank 74 100 74 None Calm Calm E 76 - 79 7/28/2017 2:30:00 AM
US-50 at I-95 75 93 73 None Calm Calm N 79 - 81 7/28/2017 2:30:00 AM
US-50 at MD-2 75 97 74 None Calm Calm N 79 - 81 7/28/2017 2:30:00 AM
US-50 at MD-331 75 92 73 None Calm 7 mph S 77 - 80 7/28/2017 2:30:00 AM
US-50 at OC Drawbridge 76 88 72 None 4 mph 13 mph SW 79 - 79 7/28/2017 2:30:00 AM
US-50 at Table Rock Rd 63 100 63 None Calm Calm W 74 - 74 7/28/2017 2:30:00 AM
US-50 Kent Narrow Bridge 76 96 75 None Calm 4 mph NE 78 - 80 7/28/2017 2:30:00 AM
WPL Pier 31 - - - No Data Available - - No Data Available - 7/28/2017 2:34:00 AM
Location Air RH Dwp Precip Type Wind Speed Wind Gust Direction Pavement Temperature Date/Time